Time;durP1;ratioP1;P1;durP2;ratioP2;P2;SDS_P1;SDS_P2;PMS_P1;PMS_P2;Temp;Humidity;BMP_temperature;BMP_pressure;BME280_temperature;BME280_humidity;BME280_pressure;Samples;Min_cycle;Max_cycle;Signal;HPM_P1;HPM_P2
2022/05/09 05:19:50;;;;;;;;;14.50;11.25;;;;;16.04;52.38;102040.19;5129285;27;45373;-58
2022/05/09 05:22:16;;;;;;;;;11.50;10.00;;;;;16.19;51.97;102042.16;5115518;27;45313;-58
2022/05/09 05:24:44;;;;;;;;;12.25;9.50;;;;;16.28;52.15;102033.56;5117109;27;45299;-57
2022/05/09 05:27:11;;;;;;;;;12.75;11.25;;;;;16.41;51.44;102044.69;5116318;27;46128;-59
2022/05/09 05:29:38;;;;;;;;;14.25;11.00;;;;;16.42;51.27;102032.00;5113654;27;46580;-58
2022/05/09 05:32:14;;;;;;;;;13.75;11.25;;;;;16.51;51.26;102037.84;5116347;27;45324;-68
2022/05/09 05:34:39;;;;;;;;;12.50;10.75;;;;;16.59;50.84;102045.56;5112209;27;45374;-69
2022/05/09 05:37:04;;;;;;;;;14.25;10.00;;;;;16.64;51.02;102048.97;5108247;27;45470;-69
2022/05/09 05:39:31;;;;;;;;;13.50;11.25;;;;;16.69;50.92;102049.63;5114594;27;46769;-68
2022/05/09 05:41:56;;;;;;;;;13.50;12.00;;;;;16.71;50.89;102047.72;5115691;27;45384;-72
2022/05/09 05:44:21;;;;;;;;;11.25;11.25;;;;;16.76;50.49;102045.63;5116574;27;45375;-71
2022/05/09 05:46:47;;;;;;;;;11.50;10.50;;;;;16.78;50.68;102042.84;5106586;27;45396;-70
2022/05/09 05:49:12;;;;;;;;;14.50;13.00;;;;;16.84;50.39;102047.97;5115995;27;45455;-70
2022/05/09 05:51:38;;;;;;;;;17.75;11.50;;;;;16.86;50.42;102049.63;5116568;27;45400;-69
2022/05/09 05:54:04;;;;;;;;;15.00;12.75;;;;;16.95;50.53;102040.16;5116412;27;45266;-74
2022/05/09 05:56:30;;;;;;;;;10.75;8.25;;;;;17.02;51.07;102042.47;5115823;27;45431;-66
2022/05/09 05:58:55;;;;;;;;;12.75;10.00;;;;;17.07;50.67;102044.06;5115458;27;45444;-72
2022/05/09 06:01:22;;;;;;;;;11.00;7.25;;;;;17.12;50.07;102042.88;5116136;27;45419;-71
2022/05/09 06:03:48;;;;;;;;;13.25;13.25;;;;;17.17;50.15;102051.66;5116152;27;45352;-72
2022/05/09 06:06:14;;;;;;;;;11.50;10.00;;;;;17.16;49.68;102040.88;5115777;27;45416;-68
2022/05/09 06:08:40;;;;;;;;;15.25;10.75;;;;;17.22;50.15;102054.97;5115848;27;45491;-70
2022/05/09 06:11:07;;;;;;;;;13.75;10.50;;;;;17.26;49.79;102056.59;5115013;27;45351;-71
2022/05/09 06:13:33;;;;;;;;;14.25;12.50;;;;;17.33;49.33;102055.28;5115605;27;45515;-69
2022/05/09 06:15:58;;;;;;;;;9.50;8.00;;;;;17.39;49.55;102063.09;5115888;27;45456;-69
2022/05/09 06:18:23;;;;;;;;;11.00;9.50;;;;;17.42;49.29;102063.91;5115387;27;45300;-70
2022/05/09 06:20:49;;;;;;;;;12.50;11.25;;;;;17.43;48.96;102055.69;5102057;27;45286;-70
2022/05/09 06:23:16;;;;;;;;;10.75;10.00;;;;;17.44;48.82;102062.84;5101533;27;45301;-71
2022/05/09 06:25:43;;;;;;;;;13.75;12.75;;;;;17.46;48.93;102054.63;5101629;27;45408;-71
2022/05/09 06:28:09;;;;;;;;;15.50;13.75;;;;;17.53;48.53;102056.91;5101553;27;47077;-71
2022/05/09 06:30:35;;;;;;;;;14.00;13.00;;;;;17.54;48.04;102061.38;5101992;27;45375;-71
2022/05/09 06:33:01;;;;;;;;;15.75;11.50;;;;;17.52;48.45;102057.91;5101747;27;45307;-70
2022/05/09 06:35:28;;;;;;;;;14.50;11.25;;;;;17.56;48.88;102064.00;5101222;27;46043;-70
2022/05/09 06:38:02;;;;;;;;;14.50;12.75;;;;;17.58;48.71;102060.28;5102384;27;45294;-70
2022/05/09 06:40:30;;;;;;;;;16.50;13.75;;;;;17.64;48.97;102062.69;5101793;27;45241;-70
2022/05/09 06:42:56;;;;;;;;;17.75;16.25;;;;;17.66;48.51;102060.75;5101658;27;45324;-70
2022/05/09 06:45:23;;;;;;;;;17.75;14.00;;;;;17.69;48.45;102070.59;5101560;27;45430;-70
2022/05/09 06:47:51;;;;;;;;;15.75;12.25;;;;;17.75;48.65;102071.13;5101291;27;45305;-69
2022/05/09 06:50:18;;;;;;;;;15.00;11.75;;;;;17.75;48.43;102067.53;5101361;27;45250;-71
2022/05/09 06:52:44;;;;;;;;;20.25;13.50;;;;;17.86;47.96;102077.78;5101770;27;45455;-71
2022/05/09 06:55:10;;;;;;;;;14.50;12.75;;;;;17.84;47.41;102075.16;5101559;27;45215;-71
2022/05/09 06:57:38;;;;;;;;;11.00;11.00;;;;;17.90;47.90;102082.94;5101374;27;46932;-72
2022/05/09 07:00:06;;;;;;;;;15.00;12.00;;;;;17.96;48.29;102079.88;5101563;27;45363;-72
2022/05/09 07:02:32;;;;;;;;;11.50;11.25;;;;;18.00;48.02;102077.91;5101494;27;45304;-70
2022/05/09 07:04:57;;;;;;;;;17.75;14.50;;;;;18.01;47.70;102068.78;5101241;27;45215;-72
2022/05/09 07:07:22;;;;;;;;;14.50;12.75;;;;;18.03;47.90;102073.16;5101225;27;46498;-72
2022/05/09 07:09:48;;;;;;;;;11.75;9.00;;;;;18.07;47.97;102074.75;5101488;27;45424;-71
2022/05/09 07:12:13;;;;;;;;;13.75;13.75;;;;;18.09;47.93;102075.53;5101218;27;45417;-72
2022/05/09 07:14:38;;;;;;;;;15.75;11.25;;;;;18.16;47.91;102084.22;5101295;27;45349;-56
2022/05/09 07:17:05;;;;;;;;;12.75;12.25;;;;;18.20;47.75;102080.38;5101090;27;45266;-57
2022/05/09 07:19:31;;;;;;;;;14.25;13.50;;;;;18.24;47.88;102064.78;5101122;27;45276;-57
2022/05/09 07:21:57;;;;;;;;;19.25;13.75;;;;;18.29;47.42;102070.84;5101087;27;45384;-57
2022/05/09 07:24:22;;;;;;;;;16.25;15.25;;;;;18.33;47.58;102075.13;5100621;27;45506;-57
2022/05/09 07:26:47;;;;;;;;;14.25;12.75;;;;;18.37;47.67;102076.69;5100554;27;46340;-56
2022/05/09 07:29:13;;;;;;;;;16.75;13.25;;;;;18.29;47.92;102058.09;5100911;27;45323;-57
2022/05/09 07:31:38;;;;;;;;;23.50;15.00;;;;;18.44;47.82;102075.38;5099452;27;45453;-58
2022/05/09 07:34:04;;;;;;;;;16.00;12.25;;;;;18.47;47.17;102075.19;5100119;27;45381;-57
2022/05/09 07:36:30;;;;;;;;;15.75;13.25;;;;;18.51;47.68;102080.38;5100361;27;46320;-58
2022/05/09 07:38:55;;;;;;;;;28.00;18.50;;;;;18.54;47.41;102077.44;5100594;27;45505;-56
2022/05/09 07:41:21;;;;;;;;;16.00;16.00;;;;;18.60;47.66;102076.28;5099959;27;45320;-57
2022/05/09 07:43:46;;;;;;;;;14.00;13.75;;;;;18.64;47.66;102077.84;5100434;27;45471;-58
2022/05/09 07:46:12;;;;;;;;;19.50;16.25;;;;;18.71;47.68;102071.09;5100049;27;45264;-57
2022/05/09 07:48:39;;;;;;;;;20.25;17.50;;;;;18.73;46.78;102065.56;5100593;27;45300;-57
2022/05/09 07:51:05;;;;;;;;;19.75;15.50;;;;;18.73;47.03;102063.72;5100526;27;45176;-57
2022/05/09 07:53:33;;;;;;;;;18.75;15.00;;;;;18.76;47.17;102059.94;5100391;27;45208;-58
2022/05/09 07:55:58;;;;;;;;;18.75;17.50;;;;;18.78;47.57;102067.06;5099783;27;46420;-58
2022/05/09 07:58:24;;;;;;;;;20.00;19.25;;;;;18.79;46.86;102063.38;5100398;27;45377;-58
2022/05/09 08:00:50;;;;;;;;;25.00;21.75;;;;;18.86;46.86;102066.59;5099302;27;45352;-57
2022/05/09 08:03:18;;;;;;;;;23.25;20.00;;;;;18.81;46.79;102064.13;5097085;27;46324;-58
2022/05/09 08:05:43;;;;;;;;;21.00;19.25;;;;;18.85;47.06;102062.13;5092140;27;47390;-57
2022/05/09 08:08:10;;;;;;;;;24.50;19.75;;;;;18.90;47.30;102058.16;5100030;27;45214;-57
2022/05/09 08:10:36;;;;;;;;;21.00;17.75;;;;;18.95;47.28;102070.59;5094929;27;45248;-58
2022/05/09 08:13:03;;;;;;;;;16.75;14.75;;;;;19.00;46.95;102074.78;5087535;27;45426;-57
2022/05/09 08:15:30;;;;;;;;;25.00;21.00;;;;;19.02;46.61;102066.53;5099828;27;45261;-58
2022/05/09 08:17:56;;;;;;;;;15.00;15.00;;;;;19.04;46.94;102068.22;5093652;27;45317;-57
2022/05/09 08:20:22;;;;;;;;;16.75;16.25;;;;;19.05;47.14;102063.66;5093321;27;45322;-58
2022/05/09 08:22:47;;;;;;;;;15.50;13.75;;;;;19.12;47.18;102065.03;5100013;27;45503;-57
2022/05/09 08:25:15;;;;;;;;;20.50;18.00;;;;;19.15;46.77;102068.41;5099820;27;45301;-57
2022/05/09 08:27:41;;;;;;;;;18.75;16.00;;;;;19.16;46.79;102063.84;5099195;27;45323;-57
2022/05/09 08:30:09;;;;;;;;;20.00;18.25;;;;;19.22;46.23;102074.38;5099824;27;45384;-57
2022/05/09 08:32:36;;;;;;;;;20.00;19.00;;;;;19.22;46.63;102066.22;5099359;27;45529;-57
2022/05/09 08:35:02;;;;;;;;;18.25;15.00;;;;;19.26;46.60;102062.34;5099792;27;46279;-57
2022/05/09 08:37:28;;;;;;;;;28.75;21.75;;;;;19.34;46.36;102073.63;5098402;27;45296;-58
2022/05/09 08:39:53;;;;;;;;;20.25;19.25;;;;;19.39;46.41;102076.06;5099853;27;45293;-58
2022/05/09 08:42:25;;;;;;;;;20.00;17.00;;;;;19.45;46.86;102067.53;5099090;27;45531;-57
2022/05/09 08:45:16;;;;;;;;;22.75;18.50;;;;;19.51;46.42;102065.31;5099354;27;45433;-58
2022/05/09 08:48:03;;;;;;;;;20.75;18.75;;;;;19.57;46.31;102069.50;5099314;27;45532;-58
2022/05/09 08:50:34;;;;;;;;;21.50;17.50;;;;;19.63;46.37;102067.28;5099548;27;45376;-58
2022/05/09 08:53:05;;;;;;;;;23.00;21.75;;;;;19.68;46.30;102066.97;5098912;27;45293;-57
2022/05/09 08:55:38;;;;;;;;;22.75;19.75;;;;;19.75;46.29;102065.63;5098842;27;45895;-57
2022/05/09 08:58:12;;;;;;;;;20.50;20.50;;;;;19.83;46.32;102062.41;5099246;27;45299;-57
2022/05/09 09:00:38;;;;;;;;;26.25;21.00;;;;;19.88;46.15;102061.16;5099310;27;45441;-57
2022/05/09 09:03:16;;;;;;;;;21.25;17.25;;;;;19.93;45.40;102055.41;5098899;27;45514;-59
2022/05/09 09:05:46;;;;;;;;;18.00;18.00;;;;;19.96;46.08;102061.53;5099500;27;45234;-57
2022/05/09 09:08:41;;;;;;;;;22.50;18.25;;;;;20.02;46.23;102062.97;5099367;27;45169;-58
2022/05/09 09:11:21;;;;;;;;;22.50;18.00;;;;;20.09;45.75;102058.00;5099502;27;45349;-57
2022/05/09 09:13:55;;;;;;;;;24.00;19.25;;;;;20.13;45.08;102046.84;5099175;27;45893;-57
2022/05/09 09:16:28;;;;;;;;;24.50;20.25;;;;;20.17;45.18;102051.09;5099239;27;46320;-57
2022/05/09 09:19:38;;;;;;;;;25.00;20.75;;;;;20.24;45.35;102037.97;5099241;27;45306;-57
2022/05/09 09:22:28;;;;;;;;;20.75;18.00;;;;;20.30;45.42;102043.88;5081799;27;45363;-58
2022/05/09 09:25:08;;;;;;;;;25.00;22.50;;;;;20.37;44.83;102037.09;5099421;27;45347;-59
2022/05/09 09:27:42;;;;;;;;;18.00;16.75;;;;;20.39;44.71;102031.53;5097357;27;45480;-57
2022/05/09 09:30:13;;;;;;;;;19.75;19.00;;;;;20.47;45.18;102039.19;5099392;27;45370;-57
2022/05/09 09:32:41;;;;;;;;;23.25;18.75;;;;;20.52;45.08;102037.03;5099047;27;45302;-58
2022/05/09 09:35:17;;;;;;;;;21.50;18.75;;;;;20.56;44.80;102042.19;5099142;27;45240;-58
2022/05/09 09:38:24;;;;;;;;;19.00;17.75;;;;;20.65;45.00;102037.97;5098843;27;45423;-58
2022/05/09 09:40:50;;;;;;;;;18.75;17.25;;;;;20.71;44.85;102034.81;5015534;28;45488;-58
2022/05/09 09:43:16;;;;;;;;;25.00;20.75;;;;;20.73;44.70;102039.19;5085084;27;45471;-58
2022/05/09 09:45:52;;;;;;;;;22.25;22.25;;;;;20.76;44.63;102046.25;5098671;27;45427;-57
2022/05/09 09:48:21;;;;;;;;;25.75;22.00;;;;;20.80;44.42;102042.38;5098849;27;46046;-59
2022/05/09 09:51:17;;;;;;;;;25.50;24.25;;;;;20.84;44.11;102040.31;5098929;27;46287;-58
2022/05/09 09:53:51;;;;;;;;;19.50;17.00;;;;;20.88;44.44;102041.84;5098828;27;45284;-58
2022/05/09 09:56:20;;;;;;;;;23.75;17.50;;;;;20.95;44.22;102040.44;5102019;27;45973;-58
2022/05/09 09:58:46;;;;;;;;;24.25;22.00;;;;;20.96;44.09;102025.81;5102178;27;45293;-59
2022/05/09 10:01:20;;;;;;;;;22.75;19.75;;;;;21.05;44.08;102033.38;5101093;27;45449;-58
2022/05/09 10:04:02;;;;;;;;;22.75;20.25;;;;;21.05;43.67;102017.88;5102333;27;45431;-57
2022/05/09 10:06:27;;;;;;;;;21.00;19.00;;;;;21.14;43.66;102033.63;5102364;27;45223;-58
2022/05/09 10:09:02;;;;;;;;;22.75;19.00;;;;;21.21;43.65;102028.63;5101896;27;46125;-58
2022/05/09 10:11:31;;;;;;;;;23.25;22.00;;;;;21.27;43.63;102016.41;5101727;27;45393;-58
2022/05/09 10:13:59;;;;;;;;;17.75;16.75;;;;;21.34;44.01;102023.19;5101950;27;45237;-56
2022/05/09 10:16:27;;;;;;;;;15.00;15.00;;;;;21.40;43.62;102014.56;5101424;27;45349;-58
2022/05/09 10:18:54;;;;;;;;;24.50;19.25;;;;;21.45;43.38;102009.66;5101924;27;45428;-58
2022/05/09 10:24:47;;;;;;;;;19.00;17.50;;;;;21.59;42.86;102005.94;5101950;27;45333;-57
2022/05/09 10:27:22;;;;;;;;;23.75;20.50;;;;;21.63;42.25;102002.00;5101395;27;45342;-58
2022/05/09 10:29:53;;;;;;;;;22.00;17.25;;;;;21.68;42.46;102003.44;5101432;27;45495;-58
2022/05/09 10:32:29;;;;;;;;;20.50;18.50;;;;;21.73;41.41;102001.22;5101819;27;45384;-58
2022/05/09 10:35:13;;;;;;;;;30.75;27.00;;;;;21.73;41.23;101998.50;5101764;27;45240;-57
2022/05/09 10:38:00;;;;;;;;;21.75;19.75;;;;;21.75;41.53;102004.72;5101541;27;45321;-58
2022/05/09 10:40:33;;;;;;;;;23.25;19.50;;;;;21.83;42.05;101998.69;5101317;27;46315;-58
2022/05/09 10:43:06;;;;;;;;;19.50;17.25;;;;;21.93;42.18;101998.91;5101169;27;45298;-58
2022/05/09 10:45:41;;;;;;;;;17.25;15.00;;;;;22.03;42.24;101994.53;5101586;27;45388;-57
2022/05/09 10:48:35;;;;;;;;;19.75;18.25;;;;;22.13;42.41;101987.38;5101122;27;45324;-58
2022/05/09 10:51:28;;;;;;;;;22.00;20.25;;;;;22.26;41.85;101985.50;5070635;27;45459;-58
2022/05/09 10:54:15;;;;;;;;;21.25;19.25;;;;;22.38;41.10;101990.00;5100993;27;45310;-57
2022/05/09 10:57:14;;;;;;;;;25.00;20.75;;;;;22.42;40.35;101982.47;5101147;27;45339;-57
2022/05/09 10:59:42;;;;;;;;;21.25;19.75;;;;;22.49;40.10;101983.75;5100533;27;45455;-58
2022/05/09 11:02:13;;;;;;;;;23.50;16.25;;;;;22.53;40.28;101983.41;5100812;27;45508;-58
2022/05/09 11:04:39;;;;;;;;;20.75;18.50;;;;;22.61;40.42;101974.63;5101495;27;45323;-58
2022/05/09 11:07:10;;;;;;;;;21.25;18.25;;;;;22.70;40.40;101982.09;5101199;27;45220;-58
2022/05/09 11:10:09;;;;;;;;;22.75;19.50;;;;;22.77;39.24;101983.41;5101030;27;45383;-59
2022/05/09 11:12:47;;;;;;;;;20.00;19.25;;;;;22.83;39.03;101976.56;5100698;27;46169;-58
2022/05/09 11:15:32;;;;;;;;;26.75;21.75;;;;;22.89;39.14;101982.44;5100895;27;45334;-58
2022/05/09 11:18:28;;;;;;;;;20.00;16.50;;;;;23.05;39.76;101978.53;5099348;27;45394;-59
2022/05/09 11:21:12;;;;;;;;;17.50;17.50;;;;;23.16;38.32;101973.91;5100771;27;45487;-58
2022/05/09 11:23:58;;;;;;;;;24.50;23.50;;;;;23.28;38.70;101972.09;5100840;27;45379;-59
2022/05/09 11:26:46;;;;;;;;;19.50;16.25;;;;;23.45;38.96;101973.47;5100398;27;45553;-58
2022/05/09 11:29:26;;;;;;;;;24.00;18.25;;;;;23.60;38.52;101964.91;5100512;27;45350;-57
2022/05/09 11:32:10;;;;;;;;;27.25;23.25;;;;;23.70;37.72;101952.22;5100632;27;45283;-58
2022/05/09 11:35:14;;;;;;;;;21.50;17.00;;;;;23.85;37.55;101955.56;5100463;27;46121;-58
2022/05/09 11:38:13;;;;;;;;;19.00;18.75;;;;;23.98;37.56;101953.56;5017606;28;45626;-58
2022/05/09 11:40:55;;;;;;;;;26.50;21.25;;;;;24.09;37.01;101947.16;5100454;27;45457;-58
2022/05/09 11:43:59;;;;;;;;;21.25;17.75;;;;;24.18;36.61;101951.00;5100597;27;45267;-59
2022/05/09 11:47:16;;;;;;;;;20.00;19.50;;;;;24.34;36.41;101946.88;5085788;27;45238;-57
2022/05/09 11:50:08;;;;;;;;;19.75;18.25;;;;;24.50;36.93;101947.28;5100465;27;45357;-59
2022/05/09 11:52:41;;;;;;;;;18.50;16.25;;;;;24.59;36.15;101944.75;5100683;27;45570;-58
2022/05/09 11:55:17;;;;;;;;;21.50;19.00;;;;;24.57;35.86;101941.31;5100407;27;45351;-58
2022/05/09 11:57:47;;;;;;;;;23.75;19.25;;;;;24.70;35.45;101941.97;5100224;27;47140;-58
2022/05/09 12:00:38;;;;;;;;;19.00;17.75;;;;;24.89;35.70;101940.25;5100273;27;45311;-58
2022/05/09 12:03:11;;;;;;;;;18.00;17.50;;;;;25.03;35.56;101930.84;5100349;27;45180;-58
2022/05/09 12:05:37;;;;;;;;;21.00;16.50;;;;;25.27;34.73;101930.53;5099965;27;45909;-58
2022/05/09 12:08:02;;;;;;;;;19.50;17.00;;;;;25.38;34.20;101924.09;5100202;27;45309;-58
2022/05/09 12:10:35;;;;;;;;;17.25;17.00;;;;;25.54;34.31;101927.19;5099941;27;45247;-58
2022/05/09 12:13:04;;;;;;;;;16.50;15.50;;;;;25.68;34.27;101926.88;5100109;27;45460;-59
2022/05/09 12:15:29;;;;;;;;;20.50;19.75;;;;;25.78;33.50;101921.38;5099678;27;46158;-59
2022/05/09 12:17:54;;;;;;;;;18.00;15.50;;;;;25.90;34.13;101914.75;5099106;27;46055;-59
2022/05/09 12:20:28;;;;;;;;;20.75;17.00;;;;;26.11;33.00;101917.41;5100112;27;45496;-58
2022/05/09 12:23:03;;;;;;;;;20.00;17.00;;;;;26.04;32.72;101911.59;5100191;27;45266;-59
2022/05/09 12:25:35;;;;;;;;;23.75;20.50;;;;;26.01;33.09;101911.91;5099229;27;45371;-58
2022/05/09 12:28:04;;;;;;;;;25.00;20.25;;;;;25.83;32.96;101911.72;5099479;27;45357;-59
2022/05/09 12:30:47;;;;;;;;;18.75;17.50;;;;;25.71;32.84;101911.97;5099900;27;45302;-59
2022/05/09 12:33:18;;;;;;;;;21.25;17.50;;;;;25.56;32.96;101908.69;5099712;27;45403;-58
2022/05/09 12:35:44;;;;;;;;;22.25;20.00;;;;;25.39;33.09;101891.00;5099790;27;45370;-58
2022/05/09 12:38:12;;;;;;;;;23.75;23.75;;;;;25.34;33.19;101890.56;5099784;27;46789;-59
2022/05/09 12:40:38;;;;;;;;;18.50;17.25;;;;;25.49;33.81;101880.94;5087785;27;46088;-57
2022/05/09 12:43:05;;;;;;;;;21.25;18.25;;;;;25.63;33.76;101883.31;5099764;27;45208;-58
2022/05/09 12:45:32;;;;;;;;;23.25;20.50;;;;;25.61;32.80;101884.47;5099727;27;45230;-59
2022/05/09 12:47:58;;;;;;;;;18.25;15.75;;;;;25.74;33.62;101882.34;5099629;27;45572;-58
2022/05/09 12:50:34;;;;;;;;;16.75;16.75;;;;;26.05;32.56;101882.25;5099498;27;45398;-57
2022/05/09 12:53:06;;;;;;;;;21.00;20.50;;;;;25.96;32.35;101884.84;5099890;27;45331;-58
2022/05/09 12:55:57;;;;;;;;;23.50;19.00;;;;;25.84;32.28;101874.13;5099082;27;45367;-58
2022/05/09 12:58:36;;;;;;;;;27.25;23.00;;;;;25.71;33.18;101874.38;5099503;27;47106;-59
2022/05/09 13:01:12;;;;;;;;;21.75;19.50;;;;;25.99;33.22;101873.56;5099527;27;45321;-57
2022/05/09 13:03:48;;;;;;;;;21.75;18.00;;;;;26.54;32.53;101868.38;5099753;27;45413;-59
2022/05/09 13:06:20;;;;;;;;;22.00;17.25;;;;;26.63;32.36;101856.50;5099503;27;45406;-59
2022/05/09 13:08:46;;;;;;;;;20.50;19.50;;;;;26.43;31.79;101851.19;5098496;27;45414;-58
2022/05/09 13:11:16;;;;;;;;;20.50;17.75;;;;;26.25;32.71;101853.75;5099203;27;45333;-58
2022/05/09 13:14:05;;;;;;;;;15.50;15.50;;;;;26.26;32.46;101855.53;5099513;27;45376;-58
2022/05/09 13:16:39;;;;;;;;;18.25;17.00;;;;;26.86;32.29;101842.41;5099132;27;45330;-57
2022/05/09 13:19:06;;;;;;;;;16.25;16.00;;;;;26.83;32.56;101848.19;5099260;27;46459;-57
2022/05/09 13:21:37;;;;;;;;;21.50;14.25;;;;;26.96;31.55;101843.28;5099134;27;45252;-58
2022/05/09 13:24:04;;;;;;;;;17.25;16.50;;;;;27.62;31.40;101837.63;5099550;27;45413;-59
2022/05/09 13:26:31;;;;;;;;;16.00;14.50;;;;;28.24;29.63;101831.25;5098963;27;45360;-57
2022/05/09 13:29:10;;;;;;;;;13.50;13.50;;;;;28.82;28.67;101825.16;5098808;27;46311;-57
2022/05/09 13:31:43;;;;;;;;;16.25;12.50;;;;;29.13;26.72;101825.50;5102923;27;45385;-58
2022/05/09 13:34:20;;;;;;;;;13.00;12.75;;;;;29.44;27.11;101825.84;5102493;27;45360;-59
2022/05/09 13:36:46;;;;;;;;;19.00;17.00;;;;;29.73;26.23;101824.41;5102754;27;45529;-59
2022/05/09 13:39:25;;;;;;;;;13.75;12.00;;;;;29.34;26.02;101814.91;5100465;27;45540;-58
2022/05/09 13:41:52;;;;;;;;;13.00;13.00;;;;;29.80;26.67;101820.94;5102564;27;45347;-57
2022/05/09 13:44:23;;;;;;;;;13.50;13.50;;;;;30.55;25.74;101810.66;5102648;27;45389;-58
2022/05/09 13:46:51;;;;;;;;;15.00;12.75;;;;;31.23;24.75;101802.72;5101366;27;45406;-58
2022/05/09 13:49:19;;;;;;;;;12.75;12.00;;;;;31.83;24.49;101815.94;5102371;27;46212;-58
2022/05/09 13:52:17;;;;;;;;;15.50;13.25;;;;;31.94;22.63;101807.22;5101786;27;45385;-58
2022/05/09 13:54:51;;;;;;;;;12.25;12.25;;;;;31.76;23.23;101812.19;5102532;27;45183;-58
2022/05/09 13:57:23;;;;;;;;;13.50;9.50;;;;;32.19;23.28;101807.91;5101990;27;45526;-57
2022/05/09 13:59:54;;;;;;;;;17.50;12.50;;;;;32.81;23.01;101803.03;5097888;27;45374;-58
2022/05/09 14:02:20;;;;;;;;;10.75;10.50;;;;;33.46;21.70;101799.47;5101265;27;45386;-57
2022/05/09 14:04:52;;;;;;;;;11.50;10.75;;;;;34.08;21.84;101791.44;5100989;27;45323;-58
2022/05/09 14:10:07;;;;;;;;;11.50;11.00;;;;;35.05;20.47;101786.00;5102148;27;45894;-58
2022/05/09 14:12:34;;;;;;;;;14.75;12.75;;;;;35.42;19.99;101790.31;5101866;27;45364;-59
2022/05/09 14:15:05;;;;;;;;;13.00;11.00;;;;;35.83;20.60;101784.66;5100745;27;45259;-60
2022/05/09 14:17:34;;;;;;;;;12.25;12.00;;;;;36.16;19.47;101783.84;5101819;27;45554;-58
2022/05/09 14:20:04;;;;;;;;;12.75;11.50;;;;;36.25;18.75;101786.25;5101775;27;46341;-59
2022/05/09 14:22:30;;;;;;;;;12.75;12.00;;;;;36.50;19.84;101783.66;5134930;27;45334;-58
2022/05/09 14:30:39;;;;;;;;;11.50;10.00;;;;;36.84;17.86;101788.19;5101763;27;45288;-58
2022/05/09 14:33:07;;;;;;;;;13.00;12.25;;;;;36.09;18.45;101783.84;5099644;27;45288;-59
2022/05/09 14:35:42;;;;;;;;;10.00;8.25;;;;;35.85;19.00;101776.09;5092791;27;45357;-59
2022/05/09 14:38:38;;;;;;;;;10.00;10.00;;;;;35.58;19.19;101787.13;5101172;27;45270;-59
2022/05/09 14:41:37;;;;;;;;;17.75;12.50;;;;;35.39;18.82;101781.50;5099395;27;46310;-59
2022/05/09 14:44:17;;;;;;;;;11.25;10.00;;;;;35.00;19.65;101788.56;5099680;27;45302;-57
2022/05/09 14:46:45;;;;;;;;;12.50;10.00;;;;;34.90;19.54;101783.34;5100923;27;45330;-58
2022/05/09 14:49:15;;;;;;;;;13.00;11.00;;;;;34.77;19.50;101774.06;5101559;27;45239;-58
2022/05/09 14:51:40;;;;;;;;;10.00;9.75;;;;;34.75;19.49;101774.25;5094323;27;45422;-57
2022/05/09 14:54:07;;;;;;;;;9.25;9.25;;;;;34.92;19.85;101772.88;5098231;27;45312;-58
2022/05/09 14:59:22;;;;;;;;;13.00;10.25;;;;;35.62;19.09;101768.06;5101236;27;45378;-59
2022/05/09 15:01:53;;;;;;;;;11.00;11.00;;;;;35.72;19.11;101762.13;5100072;27;46230;-58
2022/05/09 15:04:20;;;;;;;;;9.25;9.25;;;;;35.66;18.88;101755.41;5101110;27;45365;-59
2022/05/09 15:06:47;;;;;;;;;10.25;10.00;;;;;35.58;20.14;101764.81;5101270;27;45270;-58
2022/05/09 15:09:14;;;;;;;;;13.25;11.50;;;;;35.53;20.20;101752.59;5101320;27;45192;-58
2022/05/09 15:11:41;;;;;;;;;13.25;13.25;;;;;35.37;20.67;101755.75;5100851;27;46586;-57
2022/05/09 15:14:07;;;;;;;;;12.50;11.75;;;;;35.34;20.16;101745.88;5101058;27;45458;-58
2022/05/09 15:16:35;;;;;;;;;10.00;9.75;;;;;35.08;19.89;101745.72;5101001;27;45366;-59
2022/05/09 15:19:01;;;;;;;;;12.00;12.00;;;;;34.71;20.05;101742.25;5100958;27;45247;-57
2022/05/09 15:21:27;;;;;;;;;12.75;10.50;;;;;34.29;20.79;101743.25;5100788;27;46275;-57
2022/05/09 15:23:53;;;;;;;;;13.75;12.50;;;;;33.99;20.53;101759.22;5101554;27;45516;-59
2022/05/09 15:26:29;;;;;;;;;12.00;11.00;;;;;33.16;21.29;101748.59;5100636;27;45302;-59
2022/05/09 15:28:55;;;;;;;;;11.00;10.25;;;;;32.36;22.55;101753.13;5101025;27;45339;-59
2022/05/09 15:31:22;;;;;;;;;11.00;11.00;;;;;32.04;23.20;101744.03;5100641;27;46304;-60
2022/05/09 15:33:47;;;;;;;;;11.75;11.00;;;;;31.93;22.78;101744.47;5100921;27;45414;-58
2022/05/09 15:36:12;;;;;;;;;15.00;10.75;;;;;31.66;22.45;101743.09;5100644;27;45350;-59
2022/05/09 15:38:38;;;;;;;;;10.25;10.25;;;;;31.55;23.16;101736.06;5100821;27;45428;-59
2022/05/09 15:41:09;;;;;;;;;13.75;13.25;;;;;31.41;23.53;101730.41;5100497;27;45528;-58
2022/05/09 15:43:38;;;;;;;;;14.75;13.25;;;;;31.09;23.50;101723.16;5100753;27;45355;-59
2022/05/09 15:46:04;;;;;;;;;14.00;13.00;;;;;30.66;24.32;101728.13;5100714;27;45219;-60
2022/05/09 15:48:29;;;;;;;;;12.00;10.75;;;;;30.41;24.02;101712.59;5100534;27;45445;-59
2022/05/09 15:50:57;;;;;;;;;13.00;12.50;;;;;30.34;24.45;101726.28;5100646;27;45157;-58
2022/05/09 15:53:26;;;;;;;;;15.00;12.25;;;;;30.53;24.77;101713.13;5098721;27;45251;-60
2022/05/09 15:55:54;;;;;;;;;11.25;11.25;;;;;30.98;23.75;101723.50;5099431;27;45357;-59
2022/05/09 15:58:20;;;;;;;;;9.25;9.00;;;;;31.33;24.35;101708.28;5099396;27;45232;-60
2022/05/09 16:00:45;;;;;;;;;12.25;11.50;;;;;31.87;23.80;101731.34;5098895;27;45358;-59
2022/05/09 16:03:26;;;;;;;;;8.50;8.50;;;;;32.05;22.42;101719.94;5100565;27;45278;-59
2022/05/09 16:11:23;;;;;;;;;8.00;8.00;;;;;32.22;22.16;101714.06;5100067;27;45440;-58
2022/05/09 16:13:49;;;;;;;;;12.50;10.00;;;;;32.32;21.78;101719.34;5100088;27;45207;-60
2022/05/09 16:16:21;;;;;;;;;9.75;9.50;;;;;32.11;22.20;101706.16;5100159;27;45271;-58
2022/05/09 16:18:49;;;;;;;;;9.75;8.25;;;;;32.33;22.02;101720.22;5086332;27;45314;-58
2022/05/09 16:21:16;;;;;;;;;10.50;9.50;;;;;32.28;22.31;101724.41;5100060;27;45298;-58
2022/05/09 16:23:41;;;;;;;;;7.00;5.75;;;;;31.97;22.41;101717.22;5099000;27;45319;-58
2022/05/09 16:26:07;;;;;;;;;7.00;7.00;;;;;31.86;22.51;101724.06;5099131;27;45644;-59
2022/05/09 16:28:34;;;;;;;;;10.00;9.75;;;;;31.66;22.64;101722.81;5099707;27;45507;-58
2022/05/09 16:30:59;;;;;;;;;7.25;7.25;;;;;31.71;22.53;101717.59;5099568;27;45349;-59
2022/05/09 16:33:25;;;;;;;;;8.75;8.75;;;;;31.67;21.37;101713.47;5100345;27;45319;-58
2022/05/09 16:35:54;;;;;;;;;4.25;3.25;;;;;31.42;21.64;101719.16;5099096;27;45630;-59
2022/05/09 16:38:21;;;;;;;;;9.25;7.75;;;;;31.12;22.13;101720.03;5099435;27;45345;-59
2022/05/09 16:40:47;;;;;;;;;8.50;8.50;;;;;30.94;22.73;101716.63;5098292;27;46176;-58
2022/05/09 16:43:19;;;;;;;;;10.25;9.75;;;;;30.93;22.95;101714.88;5100307;27;45295;-59
2022/05/09 16:45:45;;;;;;;;;8.50;7.50;;;;;30.70;23.10;101696.28;5100214;27;45244;-59
2022/05/09 16:48:11;;;;;;;;;11.00;8.25;;;;;30.63;23.18;101709.09;5099973;27;45520;-59
2022/05/09 16:50:36;;;;;;;;;8.50;7.25;;;;;30.52;24.12;101711.41;5100031;27;45501;-59
2022/05/09 16:53:02;;;;;;;;;11.75;8.25;;;;;30.46;23.74;101708.25;5100226;27;45223;-60
2022/05/09 16:55:27;;;;;;;;;7.25;7.25;;;;;30.62;24.32;101706.53;5099845;27;45437;-58
2022/05/09 16:57:58;;;;;;;;;7.75;7.75;;;;;30.76;24.33;101712.19;5100061;27;46443;-59
2022/05/09 17:00:25;;;;;;;;;11.75;10.50;;;;;30.90;23.69;101704.16;5099303;27;45253;-59
2022/05/09 17:02:51;;;;;;;;;11.00;9.25;;;;;30.95;23.98;101696.19;5099909;27;45410;-58
2022/05/09 17:05:18;;;;;;;;;6.00;5.00;;;;;30.78;24.04;101698.16;5099895;27;45157;-60
2022/05/09 17:07:43;;;;;;;;;10.50;10.50;;;;;30.52;23.56;101701.19;5099885;27;45373;-60
2022/05/09 17:10:10;;;;;;;;;9.25;9.25;;;;;30.46;24.03;101683.34;5098860;27;46392;-59